Terminal Aerodrome Forecast
Issued by NWS Charleston, SC

Home | Current Version | Previous Version | Text Only | Print | Product List | Glossary On
Versions: 1 2 3 4 5 6 7 8 9 10 11 12
000
FTUS42 KCHS 290500
TAFSAV
TAF
KSAV 290530Z 2906/3006 27006KT P6SM FEW100
     FM291000 31005KT P6SM SKC
     FM291800 32007KT P6SM FEW050=

USA.gov is the U.S. government's official web portal to all federal, state and local government web resources and services.